sensor_id;sensor_type;location;lat;lon;timestamp;P1;durP1;ratioP1;P2;durP2;ratioP2
22650;SDS011;11492;42.646;23.400;2023-04-03T00:02:04;5.57;;;2.22;;
22650;SDS011;11492;42.646;23.400;2023-04-03T00:04:29;7.45;;;2.55;;
22650;SDS011;11492;42.646;23.400;2023-04-03T00:06:55;4.20;;;2.50;;
22650;SDS011;11492;42.646;23.400;2023-04-03T00:09:20;6.72;;;2.50;;
22650;SDS011;11492;42.646;23.400;2023-04-03T00:11:45;6.40;;;2.35;;
22650;SDS011;11492;42.646;23.400;2023-04-03T00:14:11;4.18;;;2.38;;
22650;SDS011;11492;42.646;23.400;2023-04-03T00:16:36;4.95;;;2.42;;
22650;SDS011;11492;42.646;23.400;2023-04-03T00:19:02;10.15;;;2.53;;
22650;SDS011;11492;42.646;23.400;2023-04-03T00:21:27;7.03;;;2.60;;
22650;SDS011;11492;42.646;23.400;2023-04-03T00:23:53;4.43;;;2.20;;
22650;SDS011;11492;42.646;23.400;2023-04-03T00:26:18;4.25;;;2.50;;
22650;SDS011;11492;42.646;23.400;2023-04-03T00:28:43;8.13;;;2.50;;
22650;SDS011;11492;42.646;23.400;2023-04-03T00:31:09;4.90;;;2.63;;
22650;SDS011;11492;42.646;23.400;2023-04-03T00:33:35;5.50;;;2.35;;
22650;SDS011;11492;42.646;23.400;2023-04-03T00:36:04;4.47;;;2.40;;
22650;SDS011;11492;42.646;23.400;2023-04-03T00:38:31;5.65;;;2.22;;
22650;SDS011;11492;42.646;23.400;2023-04-03T00:40:56;4.93;;;2.90;;
22650;SDS011;11492;42.646;23.400;2023-04-03T00:43:23;5.30;;;2.60;;
22650;SDS011;11492;42.646;23.400;2023-04-03T00:45:52;4.55;;;2.30;;
22650;SDS011;11492;42.646;23.400;2023-04-03T00:48:23;6.03;;;2.35;;
22650;SDS011;11492;42.646;23.400;2023-04-03T00:50:55;4.97;;;2.22;;
22650;SDS011;11492;42.646;23.400;2023-04-03T00:53:23;4.32;;;2.13;;
22650;SDS011;11492;42.646;23.400;2023-04-03T00:55:58;4.75;;;2.25;;
22650;SDS011;11492;42.646;23.400;2023-04-03T00:58:28;4.40;;;2.15;;
22650;SDS011;11492;42.646;23.400;2023-04-03T01:00:59;7.00;;;2.30;;
22650;SDS011;11492;42.646;23.400;2023-04-03T01:03:30;4.50;;;2.55;;
22650;SDS011;11492;42.646;23.400;2023-04-03T01:05:56;3.97;;;2.25;;
22650;SDS011;11492;42.646;23.400;2023-04-03T01:08:22;4.35;;;1.85;;
22650;SDS011;11492;42.646;23.400;2023-04-03T01:10:48;3.25;;;2.17;;
22650;SDS011;11492;42.646;23.400;2023-04-03T01:13:19;6.28;;;2.42;;
22650;SDS011;11492;42.646;23.400;2023-04-03T01:15:49;4.22;;;2.42;;
22650;SDS011;11492;42.646;23.400;2023-04-03T01:18:14;3.00;;;1.90;;
22650;SDS011;11492;42.646;23.400;2023-04-03T01:20:44;2.78;;;1.95;;
22650;SDS011;11492;42.646;23.400;2023-04-03T01:23:39;3.88;;;2.10;;
22650;SDS011;11492;42.646;23.400;2023-04-03T01:26:07;4.00;;;2.00;;
22650;SDS011;11492;42.646;23.400;2023-04-03T01:28:35;5.78;;;2.38;;
22650;SDS011;11492;42.646;23.400;2023-04-03T01:33:35;6.65;;;2.08;;
22650;SDS011;11492;42.646;23.400;2023-04-03T01:36:02;7.13;;;2.33;;
22650;SDS011;11492;42.646;23.400;2023-04-03T01:38:28;3.58;;;2.03;;
22650;SDS011;11492;42.646;23.400;2023-04-03T01:40:53;6.90;;;2.30;;
22650;SDS011;11492;42.646;23.400;2023-04-03T01:43:19;4.00;;;2.10;;
22650;SDS011;11492;42.646;23.400;2023-04-03T01:45:44;3.53;;;1.90;;
22650;SDS011;11492;42.646;23.400;2023-04-03T01:48:11;6.97;;;2.35;;
22650;SDS011;11492;42.646;23.400;2023-04-03T01:50:38;4.00;;;2.10;;
22650;SDS011;11492;42.646;23.400;2023-04-03T01:53:03;3.72;;;1.70;;
22650;SDS011;11492;42.646;23.400;2023-04-03T01:55:29;5.97;;;2.22;;
22650;SDS011;11492;42.646;23.400;2023-04-03T01:57:54;4.47;;;2.25;;
22650;SDS011;11492;42.646;23.400;2023-04-03T02:00:19;4.10;;;2.20;;
22650;SDS011;11492;42.646;23.400;2023-04-03T02:02:45;4.63;;;2.00;;
22650;SDS011;11492;42.646;23.400;2023-04-03T02:05:10;4.75;;;1.88;;
22650;SDS011;11492;42.646;23.400;2023-04-03T02:07:36;4.30;;;2.05;;
22650;SDS011;11492;42.646;23.400;2023-04-03T02:10:02;4.20;;;2.00;;
22650;SDS011;11492;42.646;23.400;2023-04-03T02:12:27;6.13;;;2.03;;
22650;SDS011;11492;42.646;23.400;2023-04-03T02:14:53;3.35;;;1.92;;
22650;SDS011;11492;42.646;23.400;2023-04-03T02:17:18;5.13;;;1.92;;
22650;SDS011;11492;42.646;23.400;2023-04-03T02:19:43;4.15;;;2.30;;
22650;SDS011;11492;42.646;23.400;2023-04-03T02:22:09;4.43;;;2.40;;
22650;SDS011;11492;42.646;23.400;2023-04-03T02:24:34;3.55;;;2.13;;
22650;SDS011;11492;42.646;23.400;2023-04-03T02:27:00;4.22;;;2.40;;
22650;SDS011;11492;42.646;23.400;2023-04-03T02:29:25;7.20;;;2.38;;
22650;SDS011;11492;42.646;23.400;2023-04-03T02:31:51;7.45;;;2.45;;
22650;SDS011;11492;42.646;23.400;2023-04-03T02:34:16;3.92;;;2.13;;
22650;SDS011;11492;42.646;23.400;2023-04-03T02:36:42;6.97;;;2.60;;
22650;SDS011;11492;42.646;23.400;2023-04-03T02:39:08;5.72;;;2.50;;
22650;SDS011;11492;42.646;23.400;2023-04-03T02:41:34;5.05;;;2.80;;
22650;SDS011;11492;42.646;23.400;2023-04-03T02:44:02;5.45;;;2.38;;
22650;SDS011;11492;42.646;23.400;2023-04-03T02:46:29;6.63;;;2.92;;
22650;SDS011;11492;42.646;23.400;2023-04-03T02:48:55;5.18;;;2.58;;
22650;SDS011;11492;42.646;23.400;2023-04-03T02:51:20;3.83;;;2.40;;
22650;SDS011;11492;42.646;23.400;2023-04-03T02:53:46;10.45;;;2.55;;
22650;SDS011;11492;42.646;23.400;2023-04-03T02:56:11;9.18;;;2.75;;
22650;SDS011;11492;42.646;23.400;2023-04-03T02:58:37;8.48;;;2.30;;
22650;SDS011;11492;42.646;23.400;2023-04-03T03:01:02;8.90;;;2.80;;
22650;SDS011;11492;42.646;23.400;2023-04-03T03:03:28;5.10;;;2.35;;
22650;SDS011;11492;42.646;23.400;2023-04-03T03:06:06;5.35;;;2.60;;
22650;SDS011;11492;42.646;23.400;2023-04-03T03:08:34;5.40;;;2.58;;
22650;SDS011;11492;42.646;23.400;2023-04-03T03:11:00;6.72;;;2.83;;
22650;SDS011;11492;42.646;23.400;2023-04-03T03:13:26;4.63;;;2.45;;
22650;SDS011;11492;42.646;23.400;2023-04-03T03:15:51;4.97;;;2.53;;
22650;SDS011;11492;42.646;23.400;2023-04-03T03:18:17;9.60;;;2.60;;
22650;SDS011;11492;42.646;23.400;2023-04-03T03:20:42;4.95;;;2.45;;
22650;SDS011;11492;42.646;23.400;2023-04-03T03:23:08;9.75;;;3.22;;
22650;SDS011;11492;42.646;23.400;2023-04-03T03:25:37;7.10;;;3.05;;
22650;SDS011;11492;42.646;23.400;2023-04-03T03:28:03;6.03;;;2.72;;
22650;SDS011;11492;42.646;23.400;2023-04-03T03:30:28;5.10;;;2.40;;
22650;SDS011;11492;42.646;23.400;2023-04-03T03:32:54;5.72;;;2.60;;
22650;SDS011;11492;42.646;23.400;2023-04-03T03:35:19;4.82;;;2.50;;
22650;SDS011;11492;42.646;23.400;2023-04-03T03:37:45;4.25;;;2.45;;
22650;SDS011;11492;42.646;23.400;2023-04-03T03:40:10;6.63;;;2.60;;
22650;SDS011;11492;42.646;23.400;2023-04-03T03:42:38;5.00;;;2.58;;
22650;SDS011;11492;42.646;23.400;2023-04-03T03:45:03;7.78;;;3.47;;
22650;SDS011;11492;42.646;23.400;2023-04-03T03:47:29;9.70;;;4.50;;
22650;SDS011;11492;42.646;23.400;2023-04-03T03:49:55;9.07;;;2.92;;
22650;SDS011;11492;42.646;23.400;2023-04-03T03:52:20;6.90;;;2.90;;
22650;SDS011;11492;42.646;23.400;2023-04-03T03:54:45;8.88;;;2.28;;
22650;SDS011;11492;42.646;23.400;2023-04-03T03:57:11;6.93;;;2.65;;
22650;SDS011;11492;42.646;23.400;2023-04-03T03:59:36;5.10;;;2.67;;
22650;SDS011;11492;42.646;23.400;2023-04-03T04:02:02;10.65;;;2.65;;
22650;SDS011;11492;42.646;23.400;2023-04-03T04:04:28;5.78;;;3.15;;
22650;SDS011;11492;42.646;23.400;2023-04-03T04:06:53;9.00;;;2.95;;
22650;SDS011;11492;42.646;23.400;2023-04-03T04:09:19;9.75;;;3.03;;
22650;SDS011;11492;42.646;23.400;2023-04-03T04:11:44;11.32;;;3.00;;
22650;SDS011;11492;42.646;23.400;2023-04-03T04:14:10;14.07;;;3.47;;
22650;SDS011;11492;42.646;23.400;2023-04-03T04:16:37;11.23;;;5.10;;
22650;SDS011;11492;42.646;23.400;2023-04-03T04:19:02;9.20;;;3.78;;
22650;SDS011;11492;42.646;23.400;2023-04-03T04:21:28;14.82;;;3.58;;
22650;SDS011;11492;42.646;23.400;2023-04-03T04:23:53;9.18;;;3.40;;
22650;SDS011;11492;42.646;23.400;2023-04-03T04:26:19;11.93;;;3.58;;
22650;SDS011;11492;42.646;23.400;2023-04-03T04:28:45;7.05;;;3.05;;
22650;SDS011;11492;42.646;23.400;2023-04-03T04:31:10;4.85;;;2.80;;
22650;SDS011;11492;42.646;23.400;2023-04-03T04:33:36;5.93;;;2.70;;
22650;SDS011;11492;42.646;23.400;2023-04-03T04:36:01;10.95;;;3.40;;
22650;SDS011;11492;42.646;23.400;2023-04-03T04:38:27;9.27;;;3.13;;
22650;SDS011;11492;42.646;23.400;2023-04-03T04:40:52;8.43;;;3.15;;
22650;SDS011;11492;42.646;23.400;2023-04-03T04:43:17;7.20;;;3.10;;
22650;SDS011;11492;42.646;23.400;2023-04-03T04:45:43;6.45;;;2.88;;
22650;SDS011;11492;42.646;23.400;2023-04-03T04:48:08;5.82;;;3.05;;
22650;SDS011;11492;42.646;23.400;2023-04-03T04:50:34;11.68;;;3.97;;
22650;SDS011;11492;42.646;23.400;2023-04-03T04:52:59;46.85;;;22.88;;
22650;SDS011;11492;42.646;23.400;2023-04-03T04:55:25;7.90;;;3.88;;
22650;SDS011;11492;42.646;23.400;2023-04-03T04:57:50;18.65;;;8.77;;
22650;SDS011;11492;42.646;23.400;2023-04-03T05:00:16;11.00;;;4.60;;
22650;SDS011;11492;42.646;23.400;2023-04-03T05:02:42;13.82;;;4.90;;
22650;SDS011;11492;42.646;23.400;2023-04-03T05:05:08;15.82;;;6.40;;
22650;SDS011;11492;42.646;23.400;2023-04-03T05:07:33;11.57;;;3.53;;
22650;SDS011;11492;42.646;23.400;2023-04-03T05:10:00;6.70;;;3.33;;
22650;SDS011;11492;42.646;23.400;2023-04-03T05:12:26;49.65;;;24.40;;
22650;SDS011;11492;42.646;23.400;2023-04-03T05:14:51;15.98;;;6.95;;
22650;SDS011;11492;42.646;23.400;2023-04-03T05:17:17;19.83;;;5.35;;
22650;SDS011;11492;42.646;23.400;2023-04-03T05:19:42;15.77;;;4.60;;
22650;SDS011;11492;42.646;23.400;2023-04-03T05:22:07;22.20;;;5.20;;
22650;SDS011;11492;42.646;23.400;2023-04-03T05:24:33;17.48;;;4.38;;
22650;SDS011;11492;42.646;23.400;2023-04-03T05:26:58;15.30;;;3.85;;
22650;SDS011;11492;42.646;23.400;2023-04-03T05:29:24;11.43;;;2.97;;
22650;SDS011;11492;42.646;23.400;2023-04-03T05:31:49;11.98;;;3.63;;
22650;SDS011;11492;42.646;23.400;2023-04-03T05:34:15;11.45;;;4.00;;
22650;SDS011;11492;42.646;23.400;2023-04-03T05:36:41;10.25;;;2.95;;
22650;SDS011;11492;42.646;23.400;2023-04-03T05:39:06;17.60;;;3.38;;
22650;SDS011;11492;42.646;23.400;2023-04-03T05:41:32;8.50;;;2.95;;
22650;SDS011;11492;42.646;23.400;2023-04-03T05:43:57;6.72;;;2.90;;
22650;SDS011;11492;42.646;23.400;2023-04-03T05:46:23;14.90;;;4.05;;
22650;SDS011;11492;42.646;23.400;2023-04-03T05:48:48;14.27;;;3.13;;
22650;SDS011;11492;42.646;23.400;2023-04-03T05:51:28;9.05;;;2.97;;
22650;SDS011;11492;42.646;23.400;2023-04-03T05:53:59;9.70;;;2.87;;
22650;SDS011;11492;42.646;23.400;2023-04-03T05:56:35;9.77;;;2.88;;
22650;SDS011;11492;42.646;23.400;2023-04-03T05:59:00;10.57;;;3.05;;
22650;SDS011;11492;42.646;23.400;2023-04-03T06:01:26;13.27;;;3.17;;
22650;SDS011;11492;42.646;23.400;2023-04-03T06:03:51;10.02;;;3.38;;
22650;SDS011;11492;42.646;23.400;2023-04-03T06:06:16;13.55;;;3.20;;
22650;SDS011;11492;42.646;23.400;2023-04-03T06:08:42;8.18;;;3.38;;
22650;SDS011;11492;42.646;23.400;2023-04-03T06:11:08;17.98;;;3.38;;
22650;SDS011;11492;42.646;23.400;2023-04-03T06:13:34;11.23;;;3.40;;
22650;SDS011;11492;42.646;23.400;2023-04-03T06:16:00;13.02;;;3.70;;
22650;SDS011;11492;42.646;23.400;2023-04-03T06:18:25;18.25;;;4.30;;
22650;SDS011;11492;42.646;23.400;2023-04-03T06:20:51;9.40;;;3.60;;
22650;SDS011;11492;42.646;23.400;2023-04-03T06:23:16;12.73;;;4.35;;
22650;SDS011;11492;42.646;23.400;2023-04-03T06:25:42;15.05;;;4.00;;
22650;SDS011;11492;42.646;23.400;2023-04-03T06:28:08;12.93;;;4.30;;
22650;SDS011;11492;42.646;23.400;2023-04-03T06:30:35;17.48;;;4.22;;
22650;SDS011;11492;42.646;23.400;2023-04-03T06:33:01;32.10;;;7.25;;
22650;SDS011;11492;42.646;23.400;2023-04-03T06:35:27;34.90;;;10.43;;
22650;SDS011;11492;42.646;23.400;2023-04-03T06:37:55;32.92;;;9.40;;
22650;SDS011;11492;42.646;23.400;2023-04-03T06:40:22;26.20;;;10.15;;
22650;SDS011;11492;42.646;23.400;2023-04-03T06:42:50;23.00;;;9.43;;
22650;SDS011;11492;42.646;23.400;2023-04-03T06:45:15;34.08;;;8.85;;
22650;SDS011;11492;42.646;23.400;2023-04-03T06:47:41;30.15;;;9.40;;
22650;SDS011;11492;42.646;23.400;2023-04-03T06:50:06;26.48;;;9.13;;
22650;SDS011;11492;42.646;23.400;2023-04-03T06:52:32;27.25;;;9.85;;
22650;SDS011;11492;42.646;23.400;2023-04-03T06:54:57;21.42;;;8.68;;
22650;SDS011;11492;42.646;23.400;2023-04-03T06:57:24;26.65;;;9.30;;
22650;SDS011;11492;42.646;23.400;2023-04-03T06:59:50;30.33;;;8.55;;
22650;SDS011;11492;42.646;23.400;2023-04-03T07:02:16;30.08;;;8.38;;
22650;SDS011;11492;42.646;23.400;2023-04-03T07:04:42;25.92;;;8.95;;
22650;SDS011;11492;42.646;23.400;2023-04-03T07:07:07;24.77;;;8.35;;
22650;SDS011;11492;42.646;23.400;2023-04-03T07:09:33;35.45;;;9.60;;
22650;SDS011;11492;42.646;23.400;2023-04-03T07:11:58;23.80;;;10.02;;
22650;SDS011;11492;42.646;23.400;2023-04-03T07:14:24;25.98;;;9.10;;
22650;SDS011;11492;42.646;23.400;2023-04-03T07:16:49;33.55;;;9.32;;
22650;SDS011;11492;42.646;23.400;2023-04-03T07:19:15;31.83;;;10.23;;
22650;SDS011;11492;42.646;23.400;2023-04-03T07:21:40;23.48;;;9.98;;
22650;SDS011;11492;42.646;23.400;2023-04-03T07:24:07;23.98;;;9.73;;
22650;SDS011;11492;42.646;23.400;2023-04-03T07:26:32;32.90;;;9.38;;
22650;SDS011;11492;42.646;23.400;2023-04-03T07:28:58;23.88;;;8.68;;
22650;SDS011;11492;42.646;23.400;2023-04-03T07:31:24;18.75;;;7.35;;
22650;SDS011;11492;42.646;23.400;2023-04-03T07:33:50;25.58;;;7.80;;
22650;SDS011;11492;42.646;23.400;2023-04-03T07:36:17;21.40;;;8.63;;
22650;SDS011;11492;42.646;23.400;2023-04-03T07:38:45;19.58;;;8.30;;
22650;SDS011;11492;42.646;23.400;2023-04-03T07:41:12;31.58;;;9.50;;
22650;SDS011;11492;42.646;23.400;2023-04-03T07:43:44;25.38;;;11.20;;
22650;SDS011;11492;42.646;23.400;2023-04-03T07:46:10;38.83;;;11.70;;
22650;SDS011;11492;42.646;23.400;2023-04-03T07:48:36;30.25;;;10.00;;
22650;SDS011;11492;42.646;23.400;2023-04-03T07:51:02;44.08;;;11.02;;
22650;SDS011;11492;42.646;23.400;2023-04-03T07:53:29;36.92;;;12.57;;
22650;SDS011;11492;42.646;23.400;2023-04-03T07:55:56;49.25;;;14.63;;
22650;SDS011;11492;42.646;23.400;2023-04-03T07:58:22;52.53;;;15.50;;
22650;SDS011;11492;42.646;23.400;2023-04-03T08:00:47;51.35;;;15.25;;
22650;SDS011;11492;42.646;23.400;2023-04-03T08:03:13;52.60;;;16.77;;
22650;SDS011;11492;42.646;23.400;2023-04-03T08:05:41;38.00;;;15.52;;
22650;SDS011;11492;42.646;23.400;2023-04-03T08:08:09;46.10;;;16.60;;
22650;SDS011;11492;42.646;23.400;2023-04-03T08:10:36;47.63;;;16.05;;
22650;SDS011;11492;42.646;23.400;2023-04-03T08:13:02;46.00;;;15.88;;
22650;SDS011;11492;42.646;23.400;2023-04-03T08:15:29;41.22;;;14.70;;
22650;SDS011;11492;42.646;23.400;2023-04-03T08:17:55;48.22;;;14.93;;
22650;SDS011;11492;42.646;23.400;2023-04-03T08:20:21;46.58;;;14.82;;
22650;SDS011;11492;42.646;23.400;2023-04-03T08:22:46;41.97;;;13.50;;
22650;SDS011;11492;42.646;23.400;2023-04-03T08:25:12;39.88;;;13.00;;
22650;SDS011;11492;42.646;23.400;2023-04-03T08:27:37;41.92;;;12.52;;
22650;SDS011;11492;42.646;23.400;2023-04-03T08:30:03;30.98;;;11.57;;
22650;SDS011;11492;42.646;23.400;2023-04-03T08:32:30;33.30;;;12.05;;
22650;SDS011;11492;42.646;23.400;2023-04-03T08:34:56;32.33;;;11.50;;
22650;SDS011;11492;42.646;23.400;2023-04-03T08:37:21;46.13;;;11.82;;
22650;SDS011;11492;42.646;23.400;2023-04-03T08:39:47;39.72;;;11.82;;
22650;SDS011;11492;42.646;23.400;2023-04-03T08:42:19;36.15;;;11.82;;
22650;SDS011;11492;42.646;23.400;2023-04-03T08:45:04;53.28;;;11.13;;
22650;SDS011;11492;42.646;23.400;2023-04-03T08:47:39;37.33;;;10.80;;
22650;SDS011;11492;42.646;23.400;2023-04-03T08:50:14;29.73;;;9.90;;
22650;SDS011;11492;42.646;23.400;2023-04-03T08:52:54;30.35;;;9.07;;
22650;SDS011;11492;42.646;23.400;2023-04-03T08:55:26;24.63;;;9.32;;
22650;SDS011;11492;42.646;23.400;2023-04-03T08:58:01;21.45;;;8.55;;
22650;SDS011;11492;42.646;23.400;2023-04-03T09:00:38;38.78;;;9.10;;
22650;SDS011;11492;42.646;23.400;2023-04-03T09:03:14;24.90;;;8.60;;
22650;SDS011;11492;42.646;23.400;2023-04-03T09:05:45;21.85;;;8.52;;
22650;SDS011;11492;42.646;23.400;2023-04-03T09:08:28;31.20;;;9.82;;
22650;SDS011;11492;42.646;23.400;2023-04-03T09:16:47;22.25;;;7.75;;
22650;SDS011;11492;42.646;23.400;2023-04-03T09:19:38;27.00;;;8.65;;
22650;SDS011;11492;42.646;23.400;2023-04-03T09:22:25;27.25;;;8.00;;
22650;SDS011;11492;42.646;23.400;2023-04-03T09:24:55;20.13;;;8.52;;
22650;SDS011;11492;42.646;23.400;2023-04-03T09:27:25;20.67;;;8.32;;
22650;SDS011;11492;42.646;23.400;2023-04-03T09:29:52;17.30;;;7.50;;
22650;SDS011;11492;42.646;23.400;2023-04-03T09:32:30;24.85;;;8.15;;
22650;SDS011;11492;42.646;23.400;2023-04-03T09:35:01;24.45;;;9.32;;
22650;SDS011;11492;42.646;23.400;2023-04-03T09:37:36;27.00;;;7.78;;
22650;SDS011;11492;42.646;23.400;2023-04-03T09:40:04;20.30;;;7.30;;
22650;SDS011;11492;42.646;23.400;2023-04-03T09:42:30;20.90;;;7.70;;
22650;SDS011;11492;42.646;23.400;2023-04-03T09:44:58;18.83;;;8.05;;
22650;SDS011;11492;42.646;23.400;2023-04-03T09:47:32;15.57;;;6.75;;
22650;SDS011;11492;42.646;23.400;2023-04-03T09:50:17;14.95;;;6.43;;
22650;SDS011;11492;42.646;23.400;2023-04-03T09:52:47;11.65;;;5.40;;
22650;SDS011;11492;42.646;23.400;2023-04-03T09:57:40;16.08;;;5.95;;
22650;SDS011;11492;42.646;23.400;2023-04-03T10:00:06;20.40;;;6.25;;
22650;SDS011;11492;42.646;23.400;2023-04-03T10:02:44;16.38;;;4.82;;
22650;SDS011;11492;42.646;23.400;2023-04-03T10:05:26;20.30;;;5.53;;
22650;SDS011;11492;42.646;23.400;2023-04-03T10:10:38;24.02;;;5.28;;
22650;SDS011;11492;42.646;23.400;2023-04-03T10:15:40;23.60;;;5.43;;
22650;SDS011;11492;42.646;23.400;2023-04-03T10:18:30;26.05;;;5.68;;
22650;SDS011;11492;42.646;23.400;2023-04-03T10:20:54;14.93;;;5.30;;
22650;SDS011;11492;42.646;23.400;2023-04-03T10:23:49;16.15;;;5.60;;
22650;SDS011;11492;42.646;23.400;2023-04-03T10:26:32;25.60;;;5.57;;
22650;SDS011;11492;42.646;23.400;2023-04-03T10:40:21;14.50;;;3.80;;
22650;SDS011;11492;42.646;23.400;2023-04-03T10:45:41;9.98;;;4.20;;
22650;SDS011;11492;42.646;23.400;2023-04-03T10:54:08;9.63;;;2.90;;
22650;SDS011;11492;42.646;23.400;2023-04-03T10:56:47;5.97;;;2.72;;
22650;SDS011;11492;42.646;23.400;2023-04-03T11:01:59;7.65;;;2.58;;
22650;SDS011;11492;42.646;23.400;2023-04-03T11:04:30;10.45;;;2.85;;
22650;SDS011;11492;42.646;23.400;2023-04-03T11:07:08;5.68;;;2.33;;
22650;SDS011;11492;42.646;23.400;2023-04-03T11:09:40;5.45;;;2.58;;
22650;SDS011;11492;42.646;23.400;2023-04-03T11:15:02;9.05;;;2.78;;
22650;SDS011;11492;42.646;23.400;2023-04-03T11:17:33;8.70;;;2.70;;
22650;SDS011;11492;42.646;23.400;2023-04-03T11:25:21;6.85;;;2.58;;
22650;SDS011;11492;42.646;23.400;2023-04-03T11:27:51;7.57;;;3.20;;
22650;SDS011;11492;42.646;23.400;2023-04-03T11:30:32;5.43;;;2.97;;
22650;SDS011;11492;42.646;23.400;2023-04-03T11:33:10;4.38;;;2.80;;
22650;SDS011;11492;42.646;23.400;2023-04-03T11:35:48;6.53;;;3.28;;
22650;SDS011;11492;42.646;23.400;2023-04-03T11:38:23;6.10;;;3.08;;
22650;SDS011;11492;42.646;23.400;2023-04-03T11:40:54;4.88;;;2.85;;
22650;SDS011;11492;42.646;23.400;2023-04-03T11:50:57;7.85;;;3.35;;
22650;SDS011;11492;42.646;23.400;2023-04-03T11:53:36;8.88;;;2.90;;
22650;SDS011;11492;42.646;23.400;2023-04-03T12:01:48;5.82;;;2.90;;
22650;SDS011;11492;42.646;23.400;2023-04-03T12:04:15;5.78;;;2.97;;
22650;SDS011;11492;42.646;23.400;2023-04-03T12:06:49;9.15;;;2.63;;
22650;SDS011;11492;42.646;23.400;2023-04-03T12:09:28;7.68;;;2.85;;
22650;SDS011;11492;42.646;23.400;2023-04-03T12:11:59;4.18;;;2.40;;
22650;SDS011;11492;42.646;23.400;2023-04-03T12:14:27;4.05;;;2.60;;
22650;SDS011;11492;42.646;23.400;2023-04-03T12:16:54;4.15;;;2.17;;
22650;SDS011;11492;42.646;23.400;2023-04-03T12:24:28;7.88;;;3.28;;
22650;SDS011;11492;42.646;23.400;2023-04-03T12:27:02;15.07;;;3.17;;
22650;SDS011;11492;42.646;23.400;2023-04-03T12:38:05;7.45;;;3.42;;
22650;SDS011;11492;42.646;23.400;2023-04-03T12:43:42;8.30;;;4.13;;
22650;SDS011;11492;42.646;23.400;2023-04-03T12:46:19;7.80;;;3.80;;
22650;SDS011;11492;42.646;23.400;2023-04-03T12:48:56;11.30;;;3.83;;
22650;SDS011;11492;42.646;23.400;2023-04-03T12:51:28;8.00;;;3.97;;
22650;SDS011;11492;42.646;23.400;2023-04-03T12:54:13;12.95;;;4.15;;
22650;SDS011;11492;42.646;23.400;2023-04-03T12:56:44;9.13;;;4.03;;
22650;SDS011;11492;42.646;23.400;2023-04-03T12:59:22;9.10;;;4.40;;
22650;SDS011;11492;42.646;23.400;2023-04-03T13:01:55;14.32;;;4.78;;
22650;SDS011;11492;42.646;23.400;2023-04-03T13:04:30;10.98;;;4.50;;
22650;SDS011;11492;42.646;23.400;2023-04-03T13:06:57;9.45;;;4.60;;
22650;SDS011;11492;42.646;23.400;2023-04-03T13:09:24;23.88;;;4.90;;
22650;SDS011;11492;42.646;23.400;2023-04-03T13:11:58;17.23;;;5.20;;
22650;SDS011;11492;42.646;23.400;2023-04-03T13:14:27;15.18;;;5.85;;
22650;SDS011;11492;42.646;23.400;2023-04-03T13:17:10;19.70;;;5.93;;
22650;SDS011;11492;42.646;23.400;2023-04-03T13:19:39;13.30;;;5.28;;
22650;SDS011;11492;42.646;23.400;2023-04-03T13:22:29;19.60;;;6.03;;
22650;SDS011;11492;42.646;23.400;2023-04-03T13:24:55;12.85;;;6.22;;
22650;SDS011;11492;42.646;23.400;2023-04-03T13:27:23;11.05;;;5.72;;
22650;SDS011;11492;42.646;23.400;2023-04-03T13:29:50;11.43;;;5.78;;
22650;SDS011;11492;42.646;23.400;2023-04-03T13:32:21;13.32;;;6.03;;
22650;SDS011;11492;42.646;23.400;2023-04-03T13:34:50;13.90;;;6.53;;
22650;SDS011;11492;42.646;23.400;2023-04-03T13:37:22;16.00;;;6.68;;
22650;SDS011;11492;42.646;23.400;2023-04-03T13:40:10;12.32;;;7.20;;
22650;SDS011;11492;42.646;23.400;2023-04-03T13:42:37;21.17;;;8.20;;
22650;SDS011;11492;42.646;23.400;2023-04-03T13:45:27;17.35;;;7.75;;
22650;SDS011;11492;42.646;23.400;2023-04-03T13:48:39;20.58;;;7.10;;
22650;SDS011;11492;42.646;23.400;2023-04-03T13:51:00;12.93;;;6.50;;
22650;SDS011;11492;42.646;23.400;2023-04-03T13:56:24;10.18;;;5.85;;
22650;SDS011;11492;42.646;23.400;2023-04-03T13:59:00;12.45;;;6.22;;
22650;SDS011;11492;42.646;23.400;2023-04-03T14:01:34;12.38;;;6.15;;
22650;SDS011;11492;42.646;23.400;2023-04-03T14:04:16;9.50;;;5.43;;
22650;SDS011;11492;42.646;23.400;2023-04-03T14:06:42;9.77;;;5.00;;
22650;SDS011;11492;42.646;23.400;2023-04-03T14:09:07;8.40;;;4.80;;
22650;SDS011;11492;42.646;23.400;2023-04-03T14:11:33;8.35;;;5.00;;
22650;SDS011;11492;42.646;23.400;2023-04-03T14:14:00;12.27;;;5.70;;
22650;SDS011;11492;42.646;23.400;2023-04-03T14:16:31;11.65;;;5.10;;
22650;SDS011;11492;42.646;23.400;2023-04-03T14:19:02;10.10;;;5.22;;
22650;SDS011;11492;42.646;23.400;2023-04-03T14:21:27;13.38;;;5.32;;
22650;SDS011;11492;42.646;23.400;2023-04-03T14:23:53;9.00;;;4.80;;
22650;SDS011;11492;42.646;23.400;2023-04-03T14:26:20;8.05;;;4.30;;
22650;SDS011;11492;42.646;23.400;2023-04-03T14:28:48;8.88;;;4.75;;
22650;SDS011;11492;42.646;23.400;2023-04-03T14:31:16;5.45;;;4.00;;
22650;SDS011;11492;42.646;23.400;2023-04-03T14:33:42;9.48;;;4.10;;
22650;SDS011;11492;42.646;23.400;2023-04-03T14:36:19;6.97;;;4.35;;
22650;SDS011;11492;42.646;23.400;2023-04-03T14:38:48;6.93;;;4.03;;
22650;SDS011;11492;42.646;23.400;2023-04-03T14:41:15;8.32;;;4.05;;
22650;SDS011;11492;42.646;23.400;2023-04-03T14:43:43;5.78;;;3.50;;
22650;SDS011;11492;42.646;23.400;2023-04-03T14:46:17;8.45;;;3.92;;
22650;SDS011;11492;42.646;23.400;2023-04-03T14:48:54;9.50;;;4.15;;
22650;SDS011;11492;42.646;23.400;2023-04-03T14:51:19;5.55;;;3.25;;
22650;SDS011;11492;42.646;23.400;2023-04-03T14:53:45;8.85;;;4.00;;
22650;SDS011;11492;42.646;23.400;2023-04-03T14:56:21;5.35;;;3.22;;
22650;SDS011;11492;42.646;23.400;2023-04-03T14:58:53;4.25;;;3.50;;
22650;SDS011;11492;42.646;23.400;2023-04-03T15:01:24;6.43;;;3.78;;
22650;SDS011;11492;42.646;23.400;2023-04-03T15:03:50;7.30;;;4.28;;
22650;SDS011;11492;42.646;23.400;2023-04-03T15:06:16;6.80;;;4.35;;
22650;SDS011;11492;42.646;23.400;2023-04-03T15:08:42;8.32;;;4.57;;
22650;SDS011;11492;42.646;23.400;2023-04-03T15:11:09;6.47;;;3.90;;
22650;SDS011;11492;42.646;23.400;2023-04-03T15:13:35;7.68;;;4.20;;
22650;SDS011;11492;42.646;23.400;2023-04-03T15:16:01;9.75;;;4.70;;
22650;SDS011;11492;42.646;23.400;2023-04-03T15:18:27;10.32;;;5.45;;
22650;SDS011;11492;42.646;23.400;2023-04-03T15:21:02;8.73;;;4.88;;
22650;SDS011;11492;42.646;23.400;2023-04-03T15:23:28;9.57;;;4.50;;
22650;SDS011;11492;42.646;23.400;2023-04-03T15:25:55;7.95;;;4.45;;
22650;SDS011;11492;42.646;23.400;2023-04-03T15:28:28;10.20;;;3.97;;
22650;SDS011;11492;42.646;23.400;2023-04-03T15:30:56;7.43;;;4.03;;
22650;SDS011;11492;42.646;23.400;2023-04-03T15:33:22;5.60;;;3.60;;
22650;SDS011;11492;42.646;23.400;2023-04-03T15:35:48;7.90;;;3.88;;
22650;SDS011;11492;42.646;23.400;2023-04-03T15:38:14;5.25;;;3.63;;
22650;SDS011;11492;42.646;23.400;2023-04-03T15:40:39;5.40;;;3.60;;
22650;SDS011;11492;42.646;23.400;2023-04-03T15:43:05;5.03;;;3.50;;
22650;SDS011;11492;42.646;23.400;2023-04-03T15:45:32;6.82;;;3.67;;
22650;SDS011;11492;42.646;23.400;2023-04-03T15:48:00;7.63;;;4.10;;
22650;SDS011;11492;42.646;23.400;2023-04-03T15:50:26;7.93;;;4.40;;
22650;SDS011;11492;42.646;23.400;2023-04-03T15:52:52;8.32;;;4.40;;
22650;SDS011;11492;42.646;23.400;2023-04-03T15:55:23;6.75;;;4.78;;
22650;SDS011;11492;42.646;23.400;2023-04-03T15:57:51;7.07;;;4.65;;